METAR Data
IDs: Format: Raw Decoded Include TAF

Data at: 0643 UTC 01 Aug 2021

EDDL 010620Z 22008KT 9999 FEW009 15/13 Q1009 NOSIG